Time;durP1;ratioP1;P1;durP2;ratioP2;P2;SDS_P1;SDS_P2;PMS_P1;PMS_P2;Temp;Humidity;BMP_temperature;BMP_pressure;BME280_temperature;BME280_humidity;BME280_pressure;Samples;Min_cycle;Max_cycle;Signal;HPM_P1;HPM_P2
2021/07/04 00:00:19;;;;;;;23.40;18.62;;;;;;;19.13;82.97;99909.34;1779418;79;21622;-77
2021/07/04 00:02:46;;;;;;;20.35;17.12;;;;;;;19.11;83.10;99899.88;1779849;80;20877;-77
2021/07/04 00:05:16;;;;;;;20.92;15.25;;;;;;;19.08;82.96;99897.05;1779438;80;21505;-77
2021/07/04 00:07:43;;;;;;;25.30;15.05;;;;;;;19.05;82.91;99888.91;1778981;80;20914;-77
2021/07/04 00:10:13;;;;;;;16.93;13.90;;;;;;;19.03;82.95;99883.41;1779339;80;20935;-77
2021/07/04 00:12:40;;;;;;;20.48;15.30;;;;;;;19.01;82.97;99873.47;1779611;79;21093;-78
2021/07/04 00:15:09;;;;;;;26.95;14.68;;;;;;;18.98;83.02;99876.44;1782182;80;20939;-79
2021/07/04 00:17:36;;;;;;;22.60;15.48;;;;;;;18.98;83.14;99876.44;1796379;80;21800;-78
2021/07/04 00:20:12;;;;;;;25.68;14.80;;;;;;;18.96;83.32;99873.94;1796315;80;20871;-78
2021/07/04 00:22:41;;;;;;;24.65;14.78;;;;;;;18.94;83.41;99867.12;1796440;80;20942;-79
2021/07/04 00:25:09;;;;;;;22.60;14.85;;;;;;;18.93;83.39;99875.60;1796257;80;21383;-79
2021/07/04 00:27:36;;;;;;;18.85;14.00;;;;;;;18.92;83.61;99884.58;1796351;80;20863;-79
2021/07/04 00:30:10;;;;;;;23.35;14.47;;;;;;;18.88;83.71;99885.91;1796370;78;20844;-79
2021/07/04 00:32:38;;;;;;;21.48;14.55;;;;;;;18.87;83.69;99894.03;1796330;78;20922;-79
2021/07/04 00:35:07;;;;;;;17.45;13.25;;;;;;;18.85;83.75;99892.85;1796608;80;21341;-79
2021/07/04 00:37:34;;;;;;;23.00;14.68;;;;;;;18.84;83.76;99896.52;1796432;80;20938;-79
2021/07/04 00:40:01;;;;;;;20.88;14.63;;;;;;;18.83;83.94;99897.49;1796316;80;20962;-79
2021/07/04 00:42:29;;;;;;;33.78;14.98;;;;;;;18.81;83.92;99900.34;1796341;78;21851;-80
2021/07/04 00:44:56;;;;;;;20.97;15.40;;;;;;;18.80;83.97;99894.67;1796336;80;20962;-79
2021/07/04 00:47:23;;;;;;;22.20;14.95;;;;;;;18.79;83.96;99891.70;1796274;80;20875;-79
2021/07/04 00:49:51;;;;;;;25.65;13.83;;;;;;;18.78;83.93;99897.98;1767689;80;21435;-77
2021/07/04 00:52:19;;;;;;;16.97;14.47;;;;;;;18.76;84.02;99893.30;1796411;80;20859;-79
2021/07/04 00:54:47;;;;;;;21.55;14.45;;;;;;;18.75;83.82;99896.97;1768058;80;21146;-78
2021/07/04 00:57:14;;;;;;;17.12;14.07;;;;;;;18.75;83.75;99896.14;1796268;78;20906;-76
2021/07/04 00:59:41;;;;;;;19.00;14.18;;;;;;;18.74;83.70;99896.64;1796418;80;20875;-77
2021/07/04 01:02:10;;;;;;;21.62;14.93;;;;;;;18.74;83.67;99895.79;1796261;80;20958;-76
2021/07/04 01:04:37;;;;;;;20.97;14.18;;;;;;;18.72;83.71;99889.33;1796436;78;20902;-76
2021/07/04 01:07:05;;;;;;;19.48;13.58;;;;;;;18.70;83.97;99893.97;1796424;80;21132;-76
2021/07/04 01:09:33;;;;;;;17.92;13.08;;;;;;;18.70;84.11;99889.13;1796312;80;20911;-77
2021/07/04 01:12:00;;;;;;;18.40;12.88;;;;;;;18.70;84.16;99890.46;1796366;80;20970;-77
2021/07/04 01:14:28;;;;;;;21.85;12.98;;;;;;;18.73;83.93;99896.80;1796238;80;20969;-76
2021/07/04 01:17:00;;;;;;;17.73;13.38;;;;;;;18.74;83.75;99904.61;1797660;78;20892;-75
2021/07/04 01:19:28;;;;;;;19.15;12.10;;;;;;;18.75;83.58;99909.42;1797613;78;21154;-77
2021/07/04 01:21:56;;;;;;;19.90;12.07;;;;;;;18.75;83.50;99907.59;1796642;78;20906;-78
2021/07/04 01:24:25;;;;;;;16.37;11.70;;;;;;;18.77;83.48;99903.45;1796218;78;20914;-76
2021/07/04 01:26:52;;;;;;;19.98;12.25;;;;;;;18.77;83.46;99910.09;1796463;78;21411;-75
2021/07/04 01:29:19;;;;;;;18.12;12.75;;;;;;;18.79;83.43;99909.47;1796420;80;21337;-75
2021/07/04 01:31:48;;;;;;;16.02;12.58;;;;;;;18.78;83.33;99905.12;1796291;78;21336;-75
2021/07/04 01:34:16;;;;;;;19.87;12.13;;;;;;;18.79;83.37;99904.16;1796294;80;20927;-76
2021/07/04 01:36:43;;;;;;;19.62;13.35;;;;;;;18.80;83.31;99901.81;1796225;78;20895;-76
2021/07/04 01:39:12;;;;;;;18.40;12.07;;;;;;;18.81;83.21;99895.02;1796229;80;21427;-76
2021/07/04 01:41:46;;;;;;;21.10;12.88;;;;;;;18.82;83.18;99883.89;1795475;78;20863;-76
2021/07/04 01:44:18;;;;;;;17.52;12.37;;;;;;;18.83;83.13;99890.38;1794703;80;21157;-75
2021/07/04 01:46:45;;;;;;;15.80;11.73;;;;;;;18.83;83.04;99886.39;1796260;80;20867;-75
2021/07/04 01:49:13;;;;;;;18.90;13.03;;;;;;;18.84;83.02;99884.56;1796202;80;20918;-76
2021/07/04 01:51:40;;;;;;;16.75;11.55;;;;;;;18.84;82.95;99878.74;1796534;80;20907;-76
2021/07/04 01:54:09;;;;;;;19.95;12.13;;;;;;;18.85;82.87;99878.23;1796274;80;20808;-77
2021/07/04 01:56:37;;;;;;;18.12;11.60;;;;;;;18.86;82.90;99868.47;1796624;78;21487;-76
2021/07/04 01:59:05;;;;;;;21.23;11.78;;;;;;;18.86;82.94;99868.47;1796271;80;21356;-77
2021/07/04 02:01:34;;;;;;;20.57;11.55;;;;;;;18.86;82.93;99867.96;1774268;80;20887;-75
2021/07/04 02:04:01;;;;;;;15.58;10.88;;;;;;;18.87;82.84;99866.13;1796505;80;20918;-75
2021/07/04 02:06:28;;;;;;;18.82;12.50;;;;;;;18.88;82.82;99864.64;1796449;78;20923;-75
2021/07/04 02:08:56;;;;;;;15.98;11.93;;;;;;;18.89;82.81;99870.28;1796390;78;21503;-76
2021/07/04 02:11:24;;;;;;;19.48;11.97;;;;;;;18.90;82.82;99871.95;1796202;78;21387;-75
2021/07/04 02:13:54;;;;;;;19.65;12.18;;;;;;;18.90;82.84;99869.30;1796168;78;20887;-77
2021/07/04 02:16:24;;;;;;;27.77;13.35;;;;;;;18.92;82.89;99873.95;1784636;80;20868;-77
2021/07/04 02:18:57;;;;;;;17.40;11.73;;;;;;;18.94;82.95;99868.45;1789514;80;21349;-76
2021/07/04 02:21:32;;;;;;;21.27;12.23;;;;;;;18.93;83.00;99862.82;1777990;80;21563;-75
2021/07/04 02:24:03;;;;;;;26.45;12.35;;;;;;;18.93;82.98;99866.81;1771992;79;20927;-77
2021/07/04 02:26:35;;;;;;;20.12;12.03;;;;;;;18.94;82.97;99869.31;1756354;79;20962;-76
2021/07/04 02:29:03;;;;;;;25.08;13.00;;;;;;;18.94;83.06;99869.31;1789349;80;20922;-76
2021/07/04 02:31:36;;;;;;;20.35;12.33;;;;;;;18.96;83.06;99873.94;1790322;78;20847;-75
2021/07/04 02:34:04;;;;;;;26.15;12.82;;;;;;;18.99;82.98;99887.41;1790802;80;21774;-76
2021/07/04 02:36:33;;;;;;;25.88;13.30;;;;;;;19.01;82.82;99885.42;1789034;79;20891;-78
2021/07/04 02:39:03;;;;;;;21.15;13.58;;;;;;;19.02;82.84;99889.73;1789240;80;20938;-78
2021/07/04 02:41:33;;;;;;;19.37;13.08;;;;;;;19.03;82.66;99889.58;1790612;80;21400;-78
2021/07/04 02:44:00;;;;;;;23.40;14.15;;;;;;;19.04;82.42;99888.56;1790821;78;20966;-77
2021/07/04 02:46:31;;;;;;;36.23;13.98;;;;;;;19.07;82.27;99882.59;1790424;80;21006;-78
2021/07/04 02:48:59;;;;;;;23.18;14.28;;;;;;;19.08;82.05;99881.11;1790729;78;20910;-76
2021/07/04 02:51:26;;;;;;;23.25;12.43;;;;;;;19.10;82.06;99891.08;1790509;80;20839;-76
2021/07/04 02:53:55;;;;;;;22.32;13.93;;;;;;;19.13;82.11;99889.91;1790585;80;20942;-76
2021/07/04 02:56:23;;;;;;;23.15;12.47;;;;;;;19.15;82.11;99896.72;1790516;79;20923;-76
2021/07/04 02:58:50;;;;;;;23.87;13.03;;;;;;;19.16;82.01;99890.39;1790449;78;21133;-76
2021/07/04 03:01:19;;;;;;;23.80;13.10;;;;;;;19.19;81.90;99898.05;1790518;80;20911;-77
2021/07/04 03:03:48;;;;;;;16.75;11.12;;;;;;;19.22;81.87;99901.70;1790524;79;21336;-76
2021/07/04 03:06:16;;;;;;;16.12;11.30;;;;;;;19.24;81.95;99897.55;1790548;78;21325;-76
2021/07/04 03:08:45;;;;;;;17.77;11.20;;;;;;;19.25;81.99;99890.75;1790668;80;20899;-76
2021/07/04 03:11:14;;;;;;;17.50;11.40;;;;;;;19.25;81.95;99887.23;1790867;79;21482;-77
2021/07/04 03:13:41;;;;;;;17.82;11.12;;;;;;;19.25;82.16;99881.44;1790396;78;20911;-76
2021/07/04 03:16:08;;;;;;;26.17;12.98;;;;;;;19.30;82.32;99884.08;1791079;79;20923;-74
2021/07/04 03:18:35;;;;;;;21.45;12.25;;;;;;;19.36;82.43;99882.91;1793452;80;20878;-75
2021/07/04 03:21:03;;;;;;;16.90;12.63;;;;;;;19.43;82.23;99884.41;1793874;80;20875;-75
2021/07/04 03:23:30;;;;;;;19.95;11.90;;;;;;;19.48;82.12;99876.77;1793540;80;21122;-75
2021/07/04 03:26:00;;;;;;;23.92;12.80;;;;;;;19.53;82.25;99873.09;1793534;80;20958;-75
2021/07/04 03:28:29;;;;;;;19.65;11.90;;;;;;;19.59;82.21;99878.26;1793694;80;20926;-75
2021/07/04 03:30:58;;;;;;;22.80;13.62;;;;;;;19.64;82.18;99876.73;1793419;78;20918;-75
2021/07/04 03:33:25;;;;;;;17.10;12.55;;;;;;;19.69;82.19;99880.25;1793773;80;20993;-76
2021/07/04 03:35:52;;;;;;;18.52;13.05;;;;;;;19.75;81.91;99882.75;1793869;80;21088;-76
2021/07/04 03:38:19;;;;;;;18.05;13.10;;;;;;;19.80;81.64;99883.05;1793507;80;20847;-77
2021/07/04 03:40:48;;;;;;;25.82;12.33;;;;;;;19.87;81.53;99886.18;1794036;79;20918;-76
2021/07/04 03:43:22;;;;;;;22.00;12.53;;;;;;;19.94;81.36;99886.33;1791769;80;20966;-77
2021/07/04 03:45:49;;;;;;;22.75;13.25;;;;;;;20.02;81.22;99888.16;1793481;78;21048;-78
2021/07/04 03:48:17;;;;;;;19.42;12.30;;;;;;;20.11;81.28;99893.78;1793518;80;21148;-79
2021/07/04 03:50:45;;;;;;;19.02;12.35;;;;;;;20.20;81.27;99890.08;1793207;79;20867;-78
2021/07/04 03:53:13;;;;;;;15.72;10.70;;;;;;;20.30;81.19;99895.22;1793621;78;20872;-75
2021/07/04 03:55:40;;;;;;;15.45;9.70;;;;;;;20.41;80.94;99892.64;1793966;78;20970;-79
2021/07/04 03:58:08;;;;;;;9.30;8.10;;;;;;;20.53;80.50;99896.59;1793265;78;20958;-76
2021/07/04 04:00:39;;;;;;;12.13;7.45;;;;;;;20.68;79.57;99899.38;1793914;80;21104;-76
2021/07/04 04:03:10;;;;;;;11.68;7.25;;;;;;;20.84;78.67;99897.12;1793265;80;21515;-75
2021/07/04 04:05:43;;;;;;;12.65;8.28;;;;;;;21.00;78.28;99892.99;1792285;79;20891;-76
2021/07/04 04:08:11;;;;;;;12.60;8.00;;;;;;;21.18;77.31;99889.20;1793878;80;20895;-77
2021/07/04 04:10:41;;;;;;;14.23;8.45;;;;;;;21.36;76.19;99895.55;1793611;80;20954;-75
2021/07/04 04:13:10;;;;;;;19.70;9.38;;;;;;;21.58;75.38;99893.89;1793016;79;21143;-76
2021/07/04 04:15:38;;;;;;;13.75;10.08;;;;;;;21.84;73.52;99884.94;1793505;78;20906;-76
2021/07/04 04:18:06;;;;;;;17.98;10.30;;;;;;;22.12;71.58;99890.95;1795826;79;20851;-77
2021/07/04 04:20:34;;;;;;;15.18;9.93;;;;;;;22.30;70.43;99886.11;1796281;80;20962;-77
2021/07/04 04:23:02;;;;;;;12.40;8.58;;;;;;;22.43;69.65;99885.94;1796383;80;20981;-77
2021/07/04 04:25:29;;;;;;;15.08;9.30;;;;;;;22.51;69.44;99885.32;1796419;80;21156;-76
2021/07/04 04:27:56;;;;;;;11.80;7.20;;;;;;;22.67;69.73;99882.92;1796243;78;21386;-76
2021/07/04 04:30:23;;;;;;;14.38;7.03;;;;;;;22.89;69.72;99884.29;1796347;80;20970;-76
2021/07/04 04:32:52;;;;;;;13.08;6.65;;;;;;;23.18;68.75;99881.50;1796286;80;20930;-75
2021/07/04 04:35:19;;;;;;;12.98;6.62;;;;;;;23.54;67.62;99887.76;1767456;80;20863;-74
2021/07/04 04:37:47;;;;;;;8.93;6.40;;;;;;;23.91;65.93;99885.78;1796360;80;21522;-75
2021/07/04 04:40:15;;;;;;;20.65;7.80;;;;;;;24.17;65.23;99881.91;1796236;78;20915;-75
2021/07/04 04:42:43;;;;;;;8.75;6.60;;;;;;;24.36;64.47;99878.98;1796373;78;20949;-76
2021/07/04 04:45:10;;;;;;;12.82;7.50;;;;;;;24.50;63.93;99873.70;1796414;78;21016;-76
2021/07/04 04:47:48;;;;;;;15.70;8.05;;;;;;;24.61;63.99;99877.98;1796357;78;20866;-77
2021/07/04 04:50:23;;;;;;;18.07;8.48;;;;;;;24.75;63.94;99878.02;1791996;78;21352;-78
2021/07/04 04:52:48;;;;;;;12.85;8.18;;;;;;;24.89;63.47;99872.16;1795238;78;20852;-77
2021/07/04 04:55:15;;;;;;;15.20;7.78;;;;;;;25.06;62.59;99874.76;1767012;78;20966;-78
2021/07/04 04:57:43;;;;;;;9.43;6.67;;;;;;;25.34;62.19;99867.86;1796270;79;20958;-79
2021/07/04 05:00:26;;;;;;;6.75;6.03;;;;;;;25.65;61.65;99867.73;1793703;80;21399;-79
2021/07/04 05:03:05;;;;;;;9.45;6.85;;;;;;;25.90;60.86;99859.03;1792747;79;23012;-79
2021/07/04 05:05:28;;;;;;;9.05;6.53;;;;;;;26.21;60.42;99873.08;1793251;79;21350;-78
2021/07/04 05:07:59;;;;;;;10.80;6.28;;;;;;;26.37;58.83;99858.33;1796201;80;20887;-78
2021/07/04 05:10:27;;;;;;;11.57;6.78;;;;;;;26.47;58.19;99851.45;1796576;80;20895;-74
2021/07/04 05:12:56;;;;;;;14.38;6.97;;;;;;;26.62;57.27;99853.08;1796516;78;20863;-75
2021/07/04 05:15:26;;;;;;;10.15;6.87;;;;;;;26.81;57.25;99862.05;1767563;80;21282;-74
2021/07/04 05:17:54;;;;;;;12.80;7.55;;;;;;;27.10;56.63;99859.23;1796309;79;20925;-75
2021/07/04 05:20:21;;;;;;;14.47;8.25;;;;;;;27.42;55.93;99863.27;1767612;80;20934;-74
2021/07/04 05:22:48;;;;;;;14.07;6.65;;;;;;;27.72;54.62;99856.64;1796176;80;20907;-69
2021/07/04 05:25:15;;;;;;;9.15;6.08;;;;;;;27.95;54.06;99856.52;1796252;80;20856;-73
2021/07/04 05:27:42;;;;;;;7.97;5.60;;;;;;;28.18;53.24;99851.81;1796609;78;22141;-77
2021/07/04 05:30:10;;;;;;;6.55;5.30;;;;;;;28.50;52.90;99852.44;1796513;80;21403;-76
2021/07/04 05:32:37;;;;;;;13.22;5.00;;;;;;;28.81;52.34;99850.55;1796322;80;20860;-70
2021/07/04 05:35:05;;;;;;;6.33;4.35;;;;;;;29.07;50.51;99846.08;1796601;80;21364;-71
2021/07/04 05:37:39;;;;;;;10.85;5.83;;;;;;;29.26;49.44;99845.50;1796338;78;21017;-71
2021/07/04 05:40:12;;;;;;;7.45;4.15;;;;;;;29.44;49.20;99847.80;1795930;79;26590;-72
2021/07/04 05:42:35;;;;;;;7.95;4.60;;;;;;;29.69;48.92;99843.52;1795590;80;20835;-75
2021/07/04 05:45:11;;;;;;;6.70;4.08;;;;;;;29.82;48.33;99848.67;1796384;78;21372;-75
2021/07/04 05:47:38;;;;;;;7.30;4.30;;;;;;;30.08;47.30;99848.67;1796171;80;20898;-74
2021/07/04 05:50:06;;;;;;;6.35;4.05;;;;;;;30.41;46.36;99843.09;1796168;78;21412;-73
2021/07/04 05:52:33;;;;;;;5.22;3.92;;;;;;;30.71;45.73;99847.45;1796287;80;21517;-74
2021/07/04 05:55:00;;;;;;;8.25;4.72;;;;;;;31.00;44.92;99851.48;1796535;78;20954;-74
2021/07/04 05:57:26;;;;;;;7.92;3.60;;;;;;;31.28;44.58;99847.84;1796256;78;21406;-77
2021/07/04 05:59:53;;;;;;;7.05;3.75;;;;;;;31.47;44.35;99844.38;1796657;80;21512;-74
2021/07/04 06:02:20;;;;;;;5.80;3.27;;;;;;;31.54;44.34;99845.83;1796510;78;21002;-77
2021/07/04 06:04:47;;;;;;;9.05;3.30;;;;;;;31.69;43.87;99838.45;1796494;80;21010;-74
2021/07/04 06:07:14;;;;;;;7.42;3.55;;;;;;;31.93;43.10;99832.25;1796197;78;20974;-74
2021/07/04 06:09:41;;;;;;;7.75;3.90;;;;;;;32.14;42.33;99820.31;1796336;80;20910;-76
2021/07/04 06:12:09;;;;;;;3.75;2.98;;;;;;;32.18;41.52;99826.88;1796610;80;20923;-76
2021/07/04 06:14:35;;;;;;;5.78;3.62;;;;;;;32.22;41.60;99833.44;1796553;80;21397;-74
2021/07/04 06:17:13;;;;;;;6.40;3.80;;;;;;;32.30;41.83;99830.79;1795120;78;21956;-74
2021/07/04 06:21:58;;;;;;;6.35;3.17;;;;;;;32.75;40.54;99833.18;1816197;79;22654;-74
2021/07/04 06:24:28;;;;;;;4.87;3.00;;;;;;;32.88;40.96;99834.63;1787456;80;21020;-72
2021/07/04 06:26:55;;;;;;;6.85;3.67;;;;;;;33.06;40.94;99837.52;1789420;80;21480;-73
2021/07/04 06:29:22;;;;;;;4.45;3.62;;;;;;;33.24;40.93;99843.92;1789411;80;20970;-74
2021/07/04 06:31:50;;;;;;;5.53;3.33;;;;;;;33.43;40.16;99836.69;1789848;80;20864;-72
2021/07/04 06:34:17;;;;;;;9.83;3.62;;;;;;;33.51;40.33;99832.13;1789449;80;21009;-73
2021/07/04 06:36:44;;;;;;;6.35;3.65;;;;;;;33.54;40.74;99829.41;1789641;80;20903;-73
2021/07/04 06:39:10;;;;;;;6.75;4.22;;;;;;;33.62;40.07;99827.05;1789439;80;21128;-73
2021/07/04 06:41:38;;;;;;;9.53;3.90;;;;;;;33.64;39.85;99822.72;1789418;80;21085;-73
2021/07/04 06:44:05;;;;;;;5.05;3.77;;;;;;;33.71;39.92;99814.31;1789488;80;20912;-74
2021/07/04 06:46:32;;;;;;;7.15;4.28;;;;;;;33.66;39.25;99813.72;1789364;80;20920;-78
2021/07/04 06:52:09;;;;;;;4.95;4.05;;;;;;;33.56;40.00;99819.09;1749178;80;20995;-76
2021/07/04 06:54:36;;;;;;;4.17;3.62;;;;;;;33.59;40.40;99809.88;1789117;80;20892;-77
2021/07/04 06:59:49;;;;;;;6.92;4.33;;;;;;;33.75;40.40;99804.00;1789501;80;20980;-77
2021/07/04 07:02:16;;;;;;;5.55;4.05;;;;;;;33.87;40.11;99804.31;1789679;80;21330;-77
2021/07/04 07:04:44;;;;;;;7.75;4.30;;;;;;;33.97;40.05;99792.09;1789421;80;21064;-76
2021/07/04 07:07:12;;;;;;;5.22;4.10;;;;;;;33.97;39.07;99788.84;1789435;80;21010;-76
2021/07/04 07:09:39;;;;;;;8.83;4.30;;;;;;;33.98;38.98;99794.55;1789481;80;20918;-78
2021/07/04 07:12:06;;;;;;;6.67;3.80;;;;;;;34.10;38.76;99791.58;1790705;80;20896;-75
2021/07/04 07:14:33;;;;;;;5.40;3.30;;;;;;;34.05;38.97;99780.69;1790919;80;20983;-76
2021/07/04 07:17:01;;;;;;;4.47;3.55;;;;;;;34.13;39.18;99782.09;1789750;80;22158;-76
2021/07/04 07:19:28;;;;;;;4.28;2.95;;;;;;;34.26;37.83;99778.33;1789311;80;20915;-73
2021/07/04 07:21:55;;;;;;;3.15;2.90;;;;;;;34.38;37.50;99778.61;1784759;80;20904;-75
2021/07/04 07:24:22;;;;;;;4.03;3.05;;;;;;;34.44;37.54;99774.78;1784110;80;20877;-74
2021/07/04 07:26:49;;;;;;;6.08;3.55;;;;;;;34.54;37.62;99781.61;1784104;80;20927;-71
2021/07/04 07:29:16;;;;;;;6.90;3.10;;;;;;;34.61;37.55;99773.17;1784213;80;21978;-79
2021/07/04 07:31:45;;;;;;;6.50;3.10;;;;;;;34.74;38.10;99775.38;1783839;80;20861;-77
2021/07/04 07:34:12;;;;;;;4.62;3.35;;;;;;;34.93;37.30;99774.81;1783623;80;21011;-77
2021/07/04 07:36:39;;;;;;;4.70;4.10;;;;;;;34.96;36.43;99776.45;1783862;80;20900;-75
2021/07/04 07:39:06;;;;;;;5.10;3.10;;;;;;;34.96;36.38;99766.91;1783596;80;20860;-77
2021/07/04 07:41:35;;;;;;;5.58;3.30;;;;;;;34.98;37.26;99772.91;1782481;80;21165;-79
2021/07/04 07:44:02;;;;;;;4.03;3.60;;;;;;;35.07;37.44;99771.26;1783649;80;21062;-78
2021/07/04 07:46:29;;;;;;;5.12;3.55;;;;;;;35.31;36.33;99775.31;1783621;80;20912;-78
2021/07/04 07:48:56;;;;;;;4.78;3.55;;;;;;;35.55;36.44;99774.14;1783049;80;20931;-74
2021/07/04 07:51:45;;;;;;;5.90;2.92;;;;;;;35.65;35.85;99769.50;1783490;80;20968;-75
2021/07/04 07:54:12;;;;;;;5.53;3.12;;;;;;;35.67;36.22;99769.23;1752664;80;21863;-75
2021/07/04 07:56:39;;;;;;;4.00;3.25;;;;;;;35.65;35.24;99766.77;1783514;80;20907;-76
2021/07/04 07:59:06;;;;;;;6.37;3.52;;;;;;;35.63;35.32;99768.16;1783630;80;20841;-74
2021/07/04 08:01:33;;;;;;;3.83;3.40;;;;;;;35.63;34.85;99766.79;1783393;80;20920;-75
2021/07/04 08:04:02;;;;;;;5.65;2.98;;;;;;;35.59;35.49;99767.05;1783743;80;20885;-75
2021/07/04 08:06:29;;;;;;;4.42;2.85;;;;;;;35.73;36.11;99770.84;1783892;80;21511;-75
2021/07/04 08:08:56;;;;;;;5.08;3.27;;;;;;;35.84;36.03;99777.88;1783394;80;20877;-75
2021/07/04 08:11:26;;;;;;;6.10;3.42;;;;;;;36.06;35.70;99769.83;1783345;80;21537;-77
2021/07/04 08:13:53;;;;;;;3.52;3.22;;;;;;;36.28;34.14;99768.89;1783373;80;21453;-75
2021/07/04 08:16:21;;;;;;;5.60;2.87;;;;;;;36.37;34.58;99760.91;1783593;80;20865;-75
2021/07/04 08:18:50;;;;;;;3.95;2.90;;;;;;;36.60;34.83;99765.44;1783577;80;20868;-74
2021/07/04 08:21:18;;;;;;;4.60;3.00;;;;;;;36.79;34.28;99764.97;1779192;80;20881;-79
2021/07/04 08:23:46;;;;;;;6.35;2.87;;;;;;;36.89;33.08;99760.78;1775164;80;21339;-73
2021/07/04 08:26:13;;;;;;;4.65;3.17;;;;;;;37.04;33.36;99758.98;1775183;80;20893;-76
2021/07/04 08:28:40;;;;;;;4.47;2.92;;;;;;;37.20;32.82;99751.45;1775231;80;20912;-74
2021/07/04 08:31:07;;;;;;;4.25;3.00;;;;;;;37.36;32.76;99741.98;1775327;80;21044;-74
2021/07/04 08:33:34;;;;;;;3.92;2.80;;;;;;;37.24;31.91;99747.88;1774533;80;20948;-72
2021/07/04 08:36:03;;;;;;;4.20;3.12;;;;;;;37.10;31.41;99744.19;1775257;80;21019;-73
2021/07/04 08:38:30;;;;;;;4.30;3.50;;;;;;;36.98;31.86;99745.12;1773291;80;20944;-73
2021/07/04 08:40:57;;;;;;;3.25;2.85;;;;;;;36.90;31.83;99741.89;1775365;80;21405;-73
2021/07/04 08:43:30;;;;;;;6.78;2.65;;;;;;;36.99;32.00;99749.48;1775303;80;21462;-75
2021/07/04 08:45:58;;;;;;;5.05;2.55;;;;;;;36.99;31.68;99748.92;1775185;80;20924;-75
2021/07/04 08:48:25;;;;;;;6.20;3.10;;;;;;;36.98;30.84;99749.23;1775311;80;20959;-76
2021/07/04 08:50:53;;;;;;;4.45;2.50;;;;;;;36.97;31.40;99747.02;1775264;80;20963;-77
2021/07/04 08:53:20;;;;;;;2.92;2.58;;;;;;;37.03;31.31;99747.80;1775420;80;20877;-78
2021/07/04 08:55:50;;;;;;;3.12;2.27;;;;;;;37.03;30.41;99751.91;1775375;80;21473;-77
2021/07/04 08:58:21;;;;;;;5.33;3.10;;;;;;;36.98;30.99;99750.03;1775166;80;21351;-76
2021/07/04 09:01:16;;;;;;;2.95;2.25;;;;;;;37.07;30.46;99748.85;1775260;80;20877;-75
2021/07/04 09:03:48;;;;;;;6.35;2.58;;;;;;;37.10;30.89;99748.30;1703671;79;20923;-75
2021/07/04 09:06:17;;;;;;;3.35;2.35;;;;;;;37.29;30.84;99743.70;1684699;85;21437;-74
2021/07/04 09:08:46;;;;;;;4.50;2.12;;;;;;;37.36;29.74;99741.18;1686128;84;21169;-74
2021/07/04 09:11:18;;;;;;;2.62;2.08;;;;;;;37.37;31.00;99740.87;1688377;85;20897;-74
2021/07/04 09:13:47;;;;;;;4.47;2.22;;;;;;;37.45;29.94;99737.50;1688800;85;21441;-73
2021/07/04 09:16:20;;;;;;;3.08;1.70;;;;;;;37.46;29.26;99735.00;1688469;85;20920;-74
2021/07/04 09:19:10;;;;;;;;;;;;;;;37.29;29.57;99729.23;1691137;85;21524;-72
2021/07/04 09:21:37;;;;;;;2.35;1.85;;;;;;;37.34;29.79;99723.69;1688562;85;21819;-74
2021/07/04 09:24:33;;;;;;;3.47;1.80;;;;;;;37.21;28.85;99722.46;1688927;85;20925;-75
2021/07/04 09:27:00;;;;;;;3.65;2.10;;;;;;;37.11;28.99;99717.13;1688318;85;21484;-75
2021/07/04 09:29:52;;;;;;;2.15;1.65;;;;;;;36.83;29.08;99718.20;1688629;85;21016;-76
2021/07/04 09:32:27;;;;;;;;;;;;;;;36.66;29.52;99710.98;1690871;85;20951;-75
2021/07/04 09:35:10;;;;;;;2.90;2.20;;;;;;;36.56;30.65;99709.14;1688889;85;21124;-74
2021/07/04 09:37:46;;;;;;;4.00;2.22;;;;;;;36.53;30.77;99709.73;1688438;85;21035;-75
2021/07/04 09:40:26;;;;;;;4.58;2.15;;;;;;;36.47;30.68;99703.48;1688306;85;20972;-75
2021/07/04 09:43:15;;;;;;;2.30;2.00;;;;;;;36.41;30.38;99699.72;1688640;85;20912;-74
2021/07/04 09:46:01;;;;;;;6.75;2.08;;;;;;;36.41;30.38;99692.89;1688710;85;20992;-75
2021/07/04 09:48:35;;;;;;;1.92;1.67;;;;;;;36.33;29.99;99690.77;1688528;85;21250;-75
2021/07/04 09:51:26;;;;;;;4.53;1.90;;;;;;;36.27;30.04;99685.91;1688780;85;28146;-75
2021/07/04 09:53:57;;;;;;;10.18;2.85;;;;;;;36.24;29.78;99681.84;1688661;85;21366;-77
2021/07/04 09:56:29;;;;;;;4.22;2.10;;;;;;;36.27;31.33;99686.72;1688748;85;20909;-76
2021/07/04 09:58:58;;;;;;;2.67;1.77;;;;;;;36.50;30.55;99682.97;1688133;84;20896;-78
2021/07/04 10:01:46;;;;;;;7.20;2.90;;;;;;;36.59;30.52;99680.43;1688762;85;21073;-84
2021/07/04 10:04:39;;;;;;;2.67;1.90;;;;;;;36.62;30.65;99683.45;1682746;85;20905;-75
2021/07/04 10:07:03;;;;;;;2.62;1.82;;;;;;;36.71;29.86;99678.98;1679881;85;20933;-76
2021/07/04 10:09:30;;;;;;;3.67;2.05;;;;;;;36.77;29.87;99679.72;1680741;85;21481;-76
2021/07/04 10:11:58;;;;;;;5.33;2.45;;;;;;;36.91;30.81;99679.31;1680764;85;20996;-77
2021/07/04 10:14:25;;;;;;;3.12;1.95;;;;;;;37.12;31.13;99682.64;1680765;85;21530;-79
2021/07/04 10:16:55;;;;;;;9.83;2.10;;;;;;;37.31;29.86;99668.22;1680801;85;20939;-77
2021/07/04 10:19:25;;;;;;;3.75;2.08;;;;;;;37.38;29.88;99674.13;1681102;85;20980;-78
2021/07/04 10:22:02;;;;;;;6.83;2.37;;;;;;;37.52;29.83;99676.39;1680553;85;21031;-80
2021/07/04 10:24:29;;;;;;;2.90;2.30;;;;;;;37.64;29.42;99673.80;1680591;84;21024;-79
2021/07/04 10:26:58;;;;;;;5.25;2.47;;;;;;;37.75;29.66;99673.91;1681176;85;21889;-78
2021/07/04 10:29:29;;;;;;;3.55;2.33;;;;;;;37.84;29.74;99678.16;1681050;85;21411;-71
2021/07/04 10:32:11;;;;;;;5.97;2.20;;;;;;;37.83;29.59;99681.45;1680727;85;20877;-69
2021/07/04 10:34:44;;;;;;;4.65;2.50;;;;;;;37.88;29.77;99686.04;1680957;85;21449;-70
2021/07/04 10:37:14;;;;;;;2.02;1.85;;;;;;;37.92;29.60;99682.97;1680806;85;20976;-70
2021/07/04 10:39:40;;;;;;;3.72;2.67;;;;;;;37.99;29.17;99682.59;1681106;85;21128;-70
2021/07/04 10:42:10;;;;;;;5.40;2.25;;;;;;;38.04;29.18;99682.00;1680652;85;21039;-71
2021/07/04 10:44:50;;;;;;;4.97;2.60;;;;;;;38.09;29.40;99679.73;1680707;85;21499;-70
2021/07/04 10:47:27;;;;;;;4.25;1.90;;;;;;;38.14;29.96;99681.82;1680717;85;20937;-72
2021/07/04 10:50:11;;;;;;;3.05;2.65;;;;;;;38.12;28.38;99682.67;1681016;85;20877;-74
2021/07/04 10:52:43;;;;;;;2.87;2.67;;;;;;;38.10;28.43;99677.24;1680689;85;21069;-72
2021/07/04 10:55:13;;;;;;;2.37;2.17;;;;;;;38.05;28.49;99678.14;1681321;85;21414;-81
2021/07/04 10:57:54;;;;;;;2.90;2.20;;;;;;;38.01;28.51;99680.37;1680792;85;21603;-82
2021/07/04 11:00:38;;;;;;;2.37;2.15;;;;;;;37.97;28.78;99678.78;1680743;84;20976;-74
2021/07/04 11:03:12;;;;;;;3.75;2.20;;;;;;;37.93;29.27;99683.22;1681016;85;21043;-74
2021/07/04 11:05:44;;;;;;;3.30;1.95;;;;;;;37.92;29.73;99684.34;1680700;85;21165;-79
2021/07/04 11:08:25;;;;;;;3.98;2.65;;;;;;;37.89;28.75;99681.65;1682890;84;20921;-73
2021/07/04 11:11:08;;;;;;;2.75;1.52;;;;;;;37.86;29.49;99683.59;1682930;84;20964;-83
2021/07/04 11:13:43;;;;;;;3.17;1.80;;;;;;;37.83;29.00;99682.83;1649117;85;21045;-79
2021/07/04 11:16:14;;;;;;;4.53;2.00;;;;;;;37.70;29.52;99683.56;1631266;88;21021;-78
2021/07/04 11:18:47;;;;;;;4.72;1.77;;;;;;;37.59;30.25;99676.61;1680410;85;21164;-77
2021/07/04 11:21:16;;;;;;;;;;;;;;;37.42;30.83;99671.08;1683194;85;21338;-78
2021/07/04 11:23:44;;;;;;;5.17;2.40;;;;;;;37.31;31.13;99669.58;1680694;85;20112;-78
2021/07/04 11:26:14;;;;;;;3.77;1.90;;;;;;;37.06;31.09;99666.56;1680673;85;20960;-79
2021/07/04 11:28:48;;;;;;;4.80;1.98;;;;;;;36.65;31.51;99662.36;1680237;84;21414;-79
2021/07/04 11:31:21;;;;;;;2.60;2.15;;;;;;;36.28;31.41;99662.39;1680639;85;21419;-78
2021/07/04 11:33:51;;;;;;;3.67;2.10;;;;;;;35.88;31.97;99661.59;1680498;85;21004;-79
2021/07/04 11:36:25;;;;;;;3.25;2.10;;;;;;;35.62;33.01;99648.69;1680444;85;21454;-78
2021/07/04 11:39:08;;;;;;;5.95;2.22;;;;;;;35.34;33.31;99645.27;1680583;85;21478;-78
2021/07/04 11:41:46;;;;;;;3.98;1.85;;;;;;;34.95;32.90;99649.48;1680648;85;21419;-78
2021/07/04 11:44:15;;;;;;;3.30;2.20;;;;;;;34.63;34.14;99649.83;1680441;85;21563;-79
2021/07/04 11:46:48;;;;;;;5.10;2.30;;;;;;;34.40;34.88;99652.02;1680498;85;20892;-79